createdAt,value
2019-01-31T00:01:38.229Z,91979.16
2019-01-31T00:04:50.776Z,91978.43
2019-01-31T00:07:46.333Z,91988.78
2019-01-31T00:10:38.459Z,91993.63
2019-01-31T00:13:19.808Z,91997.69
2019-01-31T00:16:21.190Z,91998.04
2019-01-31T00:19:03.077Z,92002.10
2019-01-31T00:21:56.439Z,92000.98
2019-01-31T00:24:49.123Z,92008.31
2019-01-31T00:28:00.260Z,92008.23
2019-01-31T00:30:56.247Z,92005.94
2019-01-31T00:33:54.655Z,92006.84
2019-01-31T00:36:46.154Z,92006.41
2019-01-31T00:40:10.475Z,92015.19
2019-01-31T00:43:28.542Z,92012.44
2019-01-31T00:46:29.369Z,92009.33
2019-01-31T00:49:57.247Z,92007.14
2019-01-31T00:53:15.345Z,92016.21
2019-01-31T00:56:27.614Z,92008.88
2019-01-31T00:59:45.996Z,92011.05
2019-01-31T01:02:39.751Z,92003.73
2019-01-31T01:05:26.029Z,92006.66
2019-01-31T01:08:37.765Z,92001.53
2019-01-31T01:11:25.036Z,91999.86
2019-01-31T01:14:27.235Z,92001.61
2019-01-31T01:17:04.737Z,92010.52
2019-01-31T01:20:00.879Z,92008.60
2019-01-31T01:22:51.904Z,92004.66
2019-01-31T01:26:19.395Z,92011.20
2019-01-31T01:29:08.870Z,92003.98
2019-01-31T01:32:16.920Z,92008.58
2019-01-31T01:35:34.922Z,92010.24
2019-01-31T01:38:50.001Z,92004.45
2019-01-31T01:41:35.392Z,91999.31
2019-01-31T01:44:44.505Z,91992.91
2019-01-31T01:47:35.368Z,91992.17
2019-01-31T01:50:19.098Z,91994.83
2019-01-31T01:53:15.128Z,92005.47
2019-01-31T01:56:15.482Z,92010.33
2019-01-31T01:59:14.567Z,92010.88
2019-01-31T02:02:15.012Z,92006.30
2019-01-31T02:05:36.051Z,92013.44
2019-01-31T02:08:24.302Z,92003.26
2019-01-31T02:11:27.785Z,92003.09
2019-01-31T02:14:22.046Z,92001.80
2019-01-31T02:17:17.601Z,91997.94
2019-01-31T02:20:31.629Z,91990.33
2019-01-31T02:23:04.304Z,92004.44
2019-01-31T02:25:47.983Z,91996.31
2019-01-31T02:28:54.210Z,92002.64
2019-01-31T02:31:48.444Z,91994.94
2019-01-31T02:34:43.265Z,92002.73
2019-01-31T02:37:24.265Z,92003.66
2019-01-31T02:40:07.964Z,91998.78
2019-01-31T02:43:32.085Z,92004.56
2019-01-31T02:46:24.147Z,92013.45
2019-01-31T02:49:06.971Z,92009.69
2019-01-31T02:52:17.837Z,92006.39
2019-01-31T02:55:04.671Z,92006.66
2019-01-31T02:58:02.086Z,91996.30
2019-01-31T03:01:17.191Z,92004.28
2019-01-31T03:04:12.554Z,91998.21
2019-01-31T03:07:46.266Z,92004.55
2019-01-31T03:10:39.561Z,92003.08
2019-01-31T03:13:53.281Z,91999.45
2019-01-31T03:17:05.087Z,91997.06
2019-01-31T03:20:01.362Z,91994.55
2019-01-31T03:22:58.962Z,91993.08
2019-01-31T03:25:57.834Z,91994.08
2019-01-31T03:29:16.162Z,91990.34
2019-01-31T03:32:09.532Z,91987.44
2019-01-31T03:35:27.648Z,91987.42
2019-01-31T03:38:12.539Z,91987.23
2019-01-31T03:41:05.053Z,91983.28
2019-01-31T03:44:32.490Z,91988.59
2019-01-31T03:47:33.571Z,91984.88
2019-01-31T03:50:37.796Z,91983.63
2019-01-31T03:53:55.966Z,91975.09
2019-01-31T03:56:46.222Z,91977.27
2019-01-31T03:59:26.910Z,91971.56
2019-01-31T04:02:28.731Z,91967.50
2019-01-31T04:05:45.567Z,91962.59
2019-01-31T04:08:13.038Z,91962.45
2019-01-31T04:10:40.544Z,91956.51
2019-01-31T04:13:08.047Z,91944.98
2019-01-31T04:15:35.626Z,91945.56
2019-01-31T04:18:03.347Z,91936.59
2019-01-31T04:20:30.826Z,91936.52
2019-01-31T04:22:58.416Z,91936.48
2019-01-31T04:25:25.948Z,91928.52
2019-01-31T04:27:53.551Z,91931.20
2019-01-31T04:30:21.153Z,91932.75
2019-01-31T04:32:48.983Z,91936.48
2019-01-31T04:35:16.735Z,91936.94
2019-01-31T04:37:44.647Z,91935.88
2019-01-31T04:40:12.617Z,91934.27
2019-01-31T04:42:40.299Z,91937.80
2019-01-31T04:45:08.056Z,91939.58
2019-01-31T04:47:35.760Z,91937.52
2019-01-31T04:50:05.534Z,91942.48
2019-01-31T04:52:33.029Z,91946.48
2019-01-31T04:55:00.648Z,91950.34
2019-01-31T04:57:28.292Z,91954.69
2019-01-31T04:59:55.799Z,91957.35
2019-01-31T05:02:23.476Z,91954.80
2019-01-31T05:04:51.184Z,91962.02
2019-01-31T05:07:18.851Z,91960.41
2019-01-31T05:09:46.443Z,91960.61
2019-01-31T05:12:13.919Z,91966.96
2019-01-31T05:14:41.924Z,91965.76
2019-01-31T05:17:09.539Z,91970.59
2019-01-31T05:19:37.110Z,91975.57
2019-01-31T05:22:04.823Z,91977.72
2019-01-31T05:24:32.488Z,91984.98
2019-01-31T05:26:59.987Z,91983.98
2019-01-31T05:29:27.521Z,91991.73
2019-01-31T05:31:55.080Z,91989.13
2019-01-31T05:34:22.680Z,91991.08
2019-01-31T05:36:50.515Z,91992.03
2019-01-31T05:39:18.020Z,91990.28
2019-01-31T05:41:45.577Z,91998.36
2019-01-31T05:44:13.423Z,91990.23
2019-01-31T05:46:40.986Z,91993.05
2019-01-31T05:49:08.601Z,91991.41
2019-01-31T05:51:39.358Z,91993.91
2019-01-31T05:54:06.289Z,91993.53
2019-01-31T05:56:34.028Z,91985.50
2019-01-31T05:59:01.681Z,91983.95
2019-01-31T06:01:29.535Z,91986.32
2019-01-31T06:03:57.208Z,91996.61
2019-01-31T06:06:24.739Z,91986.87
2019-01-31T06:08:52.382Z,91984.77
2019-01-31T06:11:20.085Z,91987.17
2019-01-31T06:13:47.750Z,91991.53
2019-01-31T06:16:15.505Z,91987.58
2019-01-31T06:18:43.183Z,91991.70
2019-01-31T06:21:11.097Z,92002.58
2019-01-31T06:23:39.121Z,92004.78
2019-01-31T06:26:06.870Z,92005.05
2019-01-31T06:28:35.428Z,92001.14
2019-01-31T06:31:03.337Z,92009.86
2019-01-31T06:33:30.971Z,92020.59
2019-01-31T06:35:58.620Z,92027.55
2019-01-31T06:38:26.542Z,92026.92
2019-01-31T06:40:54.358Z,92028.67
2019-01-31T06:43:22.547Z,92029.37
2019-01-31T06:45:50.336Z,92028.77
2019-01-31T06:48:17.961Z,92035.77
2019-01-31T06:50:45.687Z,92039.15
2019-01-31T06:53:13.432Z,92038.52
2019-01-31T06:55:41.404Z,92034.41
2019-01-31T06:58:09.025Z,92028.12
2019-01-31T07:00:36.820Z,92028.88
2019-01-31T07:03:04.715Z,92028.05
2019-01-31T07:05:32.944Z,92036.31
2019-01-31T07:08:00.753Z,92034.98
2019-01-31T07:10:29.355Z,92041.55
2019-01-31T07:12:57.277Z,92041.91
2019-01-31T07:15:27.361Z,92043.12
2019-01-31T07:18:13.023Z,92040.27
2019-01-31T07:20:44.059Z,92041.72
2019-01-31T07:23:12.192Z,92036.80
2019-01-31T07:25:40.294Z,92036.36
2019-01-31T07:28:08.675Z,92043.89
2019-01-31T07:30:36.740Z,92040.31
2019-01-31T07:33:04.548Z,92036.89
2019-01-31T07:35:32.168Z,92037.12
2019-01-31T07:38:00.102Z,92032.91
2019-01-31T07:40:27.688Z,92028.29
2019-01-31T07:42:55.225Z,92033.06
2019-01-31T07:45:27.672Z,92037.39
2019-01-31T07:47:55.334Z,92040.87
2019-01-31T07:50:23.059Z,92030.52
2019-01-31T07:52:50.971Z,92029.77
2019-01-31T07:55:19.200Z,92037.55
2019-01-31T07:57:47.245Z,92032.69
2019-01-31T08:00:16.159Z,92030.94
2019-01-31T08:02:43.857Z,92035.78
2019-01-31T08:05:14.606Z,92023.27
2019-01-31T08:07:42.465Z,92027.30
2019-01-31T08:10:13.540Z,92026.28
2019-01-31T08:12:41.223Z,92033.61
2019-01-31T08:15:10.300Z,92034.35
2019-01-31T08:17:38.134Z,92033.48
2019-01-31T08:20:06.806Z,92035.78
2019-01-31T08:22:34.593Z,92042.33
2019-01-31T08:25:02.660Z,92037.92
2019-01-31T08:27:30.425Z,92034.99
2019-01-31T08:29:58.592Z,92039.73
2019-01-31T08:32:26.507Z,92033.94
2019-01-31T08:34:54.163Z,92034.36
2019-01-31T08:37:24.553Z,92030.45
2019-01-31T08:39:51.440Z,92029.20
2019-01-31T08:42:19.271Z,92032.31
2019-01-31T08:44:47.271Z,92032.39
2019-01-31T08:47:15.018Z,92034.99
2019-01-31T08:49:43.023Z,92036.62
2019-01-31T08:52:10.821Z,92033.78
2019-01-31T08:54:38.847Z,92031.28
2019-01-31T08:57:06.623Z,92037.91
2019-01-31T08:59:34.261Z,92034.09
2019-01-31T09:02:02.176Z,92043.45
2019-01-31T09:04:29.874Z,92035.00
2019-01-31T09:06:57.443Z,92041.25
2019-01-31T09:09:25.100Z,92041.28
2019-01-31T09:11:52.819Z,92040.56
2019-01-31T09:14:20.518Z,92039.25
2019-01-31T09:16:48.249Z,92043.63
2019-01-31T09:19:16.037Z,92036.70
2019-01-31T09:22:14.798Z,92040.16
2019-01-31T09:25:18.074Z,92044.34
2019-01-31T09:28:26.145Z,92051.16
2019-01-31T09:31:34.268Z,92043.50
2019-01-31T09:34:12.132Z,92043.27
2019-01-31T09:37:31.051Z,92040.12
2019-01-31T09:40:38.758Z,92043.81
2019-01-31T09:43:45.260Z,92033.25
2019-01-31T09:46:46.636Z,92034.09
2019-01-31T09:49:59.030Z,92036.19
2019-01-31T09:53:03.978Z,92034.53
2019-01-31T09:56:09.686Z,92031.64
2019-01-31T09:59:13.390Z,92031.95
2019-01-31T10:02:08.063Z,92028.87
2019-01-31T10:05:04.738Z,92030.78
2019-01-31T10:07:44.055Z,92026.64
2019-01-31T10:10:43.288Z,92020.70
2019-01-31T10:13:38.050Z,92019.51
2019-01-31T10:16:30.879Z,92022.98
2019-01-31T10:19:45.260Z,92010.49
2019-01-31T10:22:44.668Z,92016.62
2019-01-31T10:26:02.928Z,92010.14
2019-01-31T10:29:08.085Z,92019.75
2019-01-31T10:32:11.046Z,92015.44
2019-01-31T10:35:29.924Z,92015.55
2019-01-31T10:38:48.254Z,92010.96
2019-01-31T10:41:51.388Z,92010.47
2019-01-31T10:45:09.001Z,92017.06
2019-01-31T10:48:07.900Z,92009.30
2019-01-31T10:51:19.233Z,92006.61
2019-01-31T10:54:34.476Z,92004.59
2019-01-31T10:57:56.209Z,92008.47
2019-01-31T11:00:40.171Z,92004.80
2019-01-31T11:03:48.468Z,92007.89
2019-01-31T11:06:53.716Z,92009.39
2019-01-31T11:09:58.186Z,92002.61
2019-01-31T11:13:06.671Z,92000.48
2019-01-31T11:16:22.261Z,91997.42
2019-01-31T11:20:02.842Z,91999.64
2019-01-31T11:23:01.477Z,92000.02
2019-01-31T11:26:09.624Z,91996.22
2019-01-31T11:29:14.499Z,91994.73
2019-01-31T11:31:54.384Z,91993.17
2019-01-31T11:34:40.797Z,91997.44
2019-01-31T11:37:37.221Z,91998.26
2019-01-31T11:40:58.589Z,91993.42
2019-01-31T11:43:47.616Z,91999.53
2019-01-31T11:46:46.176Z,91999.42
2019-01-31T11:50:03.379Z,92000.50
2019-01-31T11:52:47.704Z,91994.89
2019-01-31T11:55:52.518Z,91994.30
2019-01-31T11:59:02.082Z,91993.93
2019-01-31T12:01:30.243Z,91993.36
2019-01-31T12:04:18.388Z,91987.56
2019-01-31T12:06:46.360Z,91985.84
2019-01-31T12:09:19.643Z,91988.95
2019-01-31T12:11:48.686Z,91996.26
2019-01-31T12:14:16.588Z,91986.23
2019-01-31T12:16:44.744Z,91987.86
2019-01-31T12:19:12.374Z,91990.70
2019-01-31T12:21:40.102Z,91994.01
2019-01-31T12:24:16.234Z,91993.37
2019-01-31T12:26:37.658Z,91995.95
2019-01-31T12:29:05.616Z,91989.69
2019-01-31T12:31:33.249Z,91993.45
2019-01-31T12:34:00.911Z,91987.86
2019-01-31T12:36:28.580Z,91992.38
2019-01-31T12:38:56.654Z,91992.88
2019-01-31T12:41:25.443Z,91993.18
2019-01-31T12:43:53.210Z,91991.73
2019-01-31T12:46:20.844Z,91998.37
2019-01-31T12:48:48.630Z,91996.16
2019-01-31T12:51:16.674Z,91997.09
2019-01-31T12:53:44.316Z,91996.04
2019-01-31T12:56:11.933Z,91996.78
2019-01-31T12:58:39.955Z,92001.96
2019-01-31T13:01:07.633Z,91997.37
2019-01-31T13:03:35.287Z,91989.27
2019-01-31T13:06:03.060Z,91992.53
2019-01-31T13:08:31.077Z,91993.78
2019-01-31T13:10:58.919Z,91988.84
2019-01-31T13:13:26.695Z,91989.42
2019-01-31T13:15:54.498Z,91997.19
2019-01-31T13:18:22.163Z,91986.70
2019-01-31T13:20:49.758Z,91992.62
2019-01-31T13:23:17.427Z,91992.26
2019-01-31T13:25:45.025Z,91990.76
2019-01-31T13:28:12.697Z,91991.09
2019-01-31T13:30:40.415Z,91995.12
2019-01-31T13:33:08.288Z,92002.61
2019-01-31T13:35:36.311Z,91997.78
2019-01-31T13:38:04.087Z,91997.42
2019-01-31T13:40:31.772Z,92002.86
2019-01-31T13:42:59.620Z,92006.73
2019-01-31T13:45:29.772Z,92012.47
2019-01-31T13:48:00.459Z,92012.92
2019-01-31T13:50:28.237Z,92013.16
2019-01-31T13:52:57.052Z,92015.16
2019-01-31T13:55:26.971Z,92017.26
2019-01-31T13:57:55.546Z,92019.84
2019-01-31T14:00:23.974Z,92019.63
2019-01-31T14:02:52.238Z,92025.50
2019-01-31T14:05:19.824Z,92024.53
2019-01-31T14:07:48.663Z,92027.92
2019-01-31T14:10:21.074Z,92031.41
2019-01-31T14:12:48.964Z,92033.64
2019-01-31T14:15:19.368Z,92036.55
2019-01-31T14:17:47.148Z,92034.48
2019-01-31T14:20:17.978Z,92045.91
2019-01-31T14:22:45.841Z,92057.58
2019-01-31T14:25:13.672Z,92061.69
2019-01-31T14:27:41.621Z,92067.03
2019-01-31T14:30:16.754Z,92059.45
2019-01-31T14:32:45.273Z,92066.52
2019-01-31T14:35:13.132Z,92068.72
2019-01-31T14:37:40.721Z,92065.80
2019-01-31T14:40:10.455Z,92071.19
2019-01-31T14:42:38.214Z,92072.38
2019-01-31T14:45:07.579Z,92081.08
2019-01-31T14:47:35.429Z,92079.44
2019-01-31T14:50:04.833Z,92089.58
2019-01-31T14:52:32.521Z,92087.46
2019-01-31T14:55:00.450Z,92090.96
2019-01-31T14:57:28.604Z,92092.44
2019-01-31T14:59:56.207Z,92102.24
2019-01-31T15:02:23.839Z,92110.50
2019-01-31T15:04:51.589Z,92130.40
2019-01-31T15:07:19.451Z,92140.55
2019-01-31T15:09:47.342Z,92138.39
2019-01-31T15:12:15.109Z,92141.35
2019-01-31T15:14:43.023Z,92144.66
2019-01-31T15:17:10.769Z,92144.30
2019-01-31T15:19:38.398Z,92145.85
2019-01-31T15:22:07.001Z,92143.92
2019-01-31T15:24:35.138Z,92151.91
2019-01-31T15:27:03.055Z,92151.64
2019-01-31T15:29:30.938Z,92155.03
2019-01-31T15:31:58.677Z,92167.25
2019-01-31T15:34:26.413Z,92172.39
2019-01-31T15:36:54.241Z,92168.27
2019-01-31T15:39:22.401Z,92174.23
2019-01-31T15:41:50.498Z,92175.90
2019-01-31T15:44:18.254Z,92183.31
2019-01-31T15:46:46.020Z,92186.91
2019-01-31T15:49:13.712Z,92191.85
2019-01-31T15:51:41.550Z,92190.94
2019-01-31T15:54:10.264Z,92198.66
2019-01-31T15:56:38.063Z,92201.69
2019-01-31T15:59:05.994Z,92206.11
2019-01-31T16:01:33.748Z,92205.18
2019-01-31T16:04:01.582Z,92211.69
2019-01-31T16:06:29.227Z,92215.11
2019-01-31T16:08:56.896Z,92216.63
2019-01-31T16:11:24.668Z,92216.27
2019-01-31T16:13:52.277Z,92221.69
2019-01-31T16:16:20.488Z,92228.53
2019-01-31T16:18:48.270Z,92230.76
2019-01-31T16:21:15.906Z,92241.20
2019-01-31T16:23:43.681Z,92249.37
2019-01-31T16:26:11.471Z,92252.58
2019-01-31T16:28:39.415Z,92251.27
2019-01-31T16:31:07.041Z,92264.52
2019-01-31T16:33:34.597Z,92267.91
2019-01-31T16:36:02.738Z,92267.72
2019-01-31T16:38:30.387Z,92276.76
2019-01-31T16:40:58.008Z,92280.77
2019-01-31T16:43:26.072Z,92290.31
2019-01-31T16:45:53.939Z,92295.56
2019-01-31T16:48:21.737Z,92299.88
2019-01-31T16:50:51.280Z,92304.08
2019-01-31T16:53:20.468Z,92307.94
2019-01-31T16:55:48.517Z,92314.86
2019-01-31T16:58:16.735Z,92320.27
2019-01-31T17:00:44.446Z,92319.73
2019-01-31T17:03:13.214Z,92327.00
2019-01-31T17:05:41.303Z,92329.73
2019-01-31T17:08:09.221Z,92330.34
2019-01-31T17:10:37.043Z,92339.49
2019-01-31T17:13:05.251Z,92336.10
2019-01-31T17:15:33.132Z,92342.86
2019-01-31T17:18:00.817Z,92344.30
2019-01-31T17:20:42.577Z,92353.75
2019-01-31T17:23:10.473Z,92352.96
2019-01-31T17:25:38.290Z,92357.55
2019-01-31T17:28:05.962Z,92362.53
2019-01-31T17:30:34.024Z,92366.00
2019-01-31T17:33:01.966Z,92370.70
2019-01-31T17:35:29.959Z,92373.75
2019-01-31T17:37:57.938Z,92381.45
2019-01-31T17:40:28.065Z,92382.89
2019-01-31T17:42:56.088Z,92396.33
2019-01-31T17:45:30.501Z,92397.55
2019-01-31T17:47:54.271Z,92405.39
2019-01-31T17:50:22.128Z,92405.78
2019-01-31T17:52:49.863Z,92410.52
2019-01-31T17:55:19.610Z,92413.34
2019-01-31T17:57:47.611Z,92413.42
2019-01-31T18:00:19.290Z,92417.27
2019-01-31T18:02:47.486Z,92410.03
2019-01-31T18:05:18.765Z,92425.52
2019-01-31T18:07:46.578Z,92429.02
2019-01-31T18:10:17.310Z,92430.02
2019-01-31T18:12:45.430Z,92430.91
2019-01-31T18:15:14.445Z,92435.92
2019-01-31T18:17:42.412Z,92435.49
2019-01-31T18:20:12.476Z,92439.27
2019-01-31T18:22:40.551Z,92446.38
2019-01-31T18:25:08.776Z,92448.66
2019-01-31T18:27:36.367Z,92447.98
2019-01-31T18:30:06.484Z,92453.19
2019-01-31T18:32:34.212Z,92451.38
2019-01-31T18:35:01.917Z,92459.04
2019-01-31T18:37:31.949Z,92457.38
2019-01-31T18:39:59.749Z,92458.20
2019-01-31T18:42:27.527Z,92463.45
2019-01-31T18:44:55.399Z,92470.39
2019-01-31T18:47:23.557Z,92470.32
2019-01-31T18:49:51.865Z,92470.91
2019-01-31T18:52:23.672Z,92472.91
2019-01-31T18:54:57.171Z,92476.92
2019-01-31T18:57:25.017Z,92481.64
2019-01-31T18:59:54.547Z,92487.19
2019-01-31T19:02:22.560Z,92489.28
2019-01-31T19:04:50.542Z,92492.42
2019-01-31T19:07:19.466Z,92496.79
2019-01-31T19:09:49.601Z,92498.02
2019-01-31T19:12:18.183Z,92505.34
2019-01-31T19:14:45.977Z,92509.13
2019-01-31T19:17:13.712Z,92508.08
2019-01-31T19:19:41.604Z,92511.84
2019-01-31T19:22:09.414Z,92511.56
2019-01-31T19:24:37.127Z,92508.59
2019-01-31T19:27:05.149Z,92512.14
2019-01-31T19:29:33.070Z,92520.19
2019-01-31T19:32:00.938Z,92515.73
2019-01-31T19:34:28.624Z,92520.52
2019-01-31T19:36:56.243Z,92523.44
2019-01-31T19:39:24.078Z,92526.67
2019-01-31T19:41:51.806Z,92530.09
2019-01-31T19:44:19.571Z,92535.27
2019-01-31T19:46:47.185Z,92530.24
2019-01-31T19:49:14.870Z,92534.42
2019-01-31T19:51:42.543Z,92540.27
2019-01-31T19:54:10.326Z,92542.06
2019-01-31T19:56:38.071Z,92547.94
2019-01-31T19:59:06.705Z,92554.34
2019-01-31T20:01:34.629Z,92562.78
2019-01-31T20:04:02.479Z,92562.28
2019-01-31T20:06:30.330Z,92567.25
2019-01-31T20:08:57.937Z,92563.98
2019-01-31T20:11:25.564Z,92568.44
2019-01-31T20:13:53.399Z,92570.48
2019-01-31T20:16:28.524Z,92575.06
2019-01-31T20:18:50.872Z,92570.66
2019-01-31T20:21:18.571Z,92577.19
2019-01-31T20:23:46.316Z,92587.27
2019-01-31T20:26:14.045Z,92585.23
2019-01-31T20:28:41.910Z,92587.95
2019-01-31T20:31:09.646Z,92591.42
2019-01-31T20:33:37.368Z,92600.00
2019-01-31T20:36:06.537Z,92601.90
2019-01-31T20:38:34.440Z,92610.70
2019-01-31T20:41:02.212Z,92614.73
2019-01-31T20:43:31.168Z,92622.91
2019-01-31T20:45:58.948Z,92625.28
2019-01-31T20:48:26.697Z,92627.05
2019-01-31T20:50:54.809Z,92622.61
2019-01-31T20:53:22.662Z,92631.40
2019-01-31T20:55:50.427Z,92635.23
2019-01-31T20:58:18.273Z,92634.59
2019-01-31T21:00:46.865Z,92645.72
2019-01-31T21:03:14.556Z,92658.03
2019-01-31T21:05:42.532Z,92655.03
2019-01-31T21:08:11.504Z,92658.16
2019-01-31T21:10:39.292Z,92664.65
2019-01-31T21:13:07.320Z,92666.67
2019-01-31T21:15:35.536Z,92666.41
2019-01-31T21:18:03.675Z,92671.27
2019-01-31T21:20:31.345Z,92670.06
2019-01-31T21:22:58.869Z,92669.06
2019-01-31T21:25:26.450Z,92674.04
2019-01-31T21:27:54.141Z,92677.05
2019-01-31T21:30:27.190Z,92685.11
2019-01-31T21:32:55.002Z,92685.06
2019-01-31T21:35:22.674Z,92686.67
2019-01-31T21:37:50.833Z,92693.15
2019-01-31T21:40:19.865Z,92699.20
2019-01-31T21:42:47.681Z,92699.20
2019-01-31T21:45:15.768Z,92702.94
2019-01-31T21:47:43.405Z,92710.61
2019-01-31T21:50:13.626Z,92714.20
2019-01-31T21:52:41.263Z,92724.42
2019-01-31T21:55:09.526Z,92733.05
2019-01-31T21:57:37.198Z,92731.41
2019-01-31T22:00:08.283Z,92730.97
2019-01-31T22:02:36.097Z,92739.17
2019-01-31T22:05:05.249Z,92729.91
2019-01-31T22:07:33.097Z,92732.14
2019-01-31T22:10:01.235Z,92739.13
2019-01-31T22:12:29.145Z,92746.52
2019-01-31T22:14:56.939Z,92750.25
2019-01-31T22:17:24.665Z,92754.22
2019-01-31T22:19:52.874Z,92761.38
2019-01-31T22:22:20.559Z,92755.52
2019-01-31T22:24:48.411Z,92757.67
2019-01-31T22:27:15.967Z,92756.20
2019-01-31T22:29:43.759Z,92765.19
2019-01-31T22:32:11.326Z,92767.36
2019-01-31T22:34:38.973Z,92773.06
2019-01-31T22:37:06.662Z,92775.11
2019-01-31T22:39:34.310Z,92774.78
2019-01-31T22:42:01.876Z,92775.61
2019-01-31T22:44:29.590Z,92778.42
2019-01-31T22:46:57.372Z,92781.48
2019-01-31T22:49:25.146Z,92781.53
2019-01-31T22:51:52.877Z,92783.02
2019-01-31T22:54:20.406Z,92781.88
2019-01-31T22:56:48.038Z,92784.05
2019-01-31T22:59:15.730Z,92794.10
2019-01-31T23:01:49.506Z,92800.61
2019-01-31T23:04:17.152Z,92799.49
2019-01-31T23:06:44.744Z,92808.98
2019-01-31T23:09:13.205Z,92809.69
2019-01-31T23:11:40.952Z,92808.99
2019-01-31T23:14:08.823Z,92810.09
2019-01-31T23:16:36.436Z,92807.22
2019-01-31T23:19:04.613Z,92807.42
2019-01-31T23:21:32.180Z,92805.23
2019-01-31T23:23:59.825Z,92813.06
2019-01-31T23:26:27.530Z,92815.03
2019-01-31T23:28:55.285Z,92821.50
2019-01-31T23:31:23.013Z,92809.23
2019-01-31T23:33:50.803Z,92813.42
2019-01-31T23:36:18.733Z,92821.17
2019-01-31T23:38:46.447Z,92822.98
2019-01-31T23:41:14.512Z,92827.76
2019-01-31T23:43:42.388Z,92824.26
2019-01-31T23:46:10.239Z,92831.96
2019-01-31T23:48:38.008Z,92826.94
2019-01-31T23:51:05.731Z,92830.44
2019-01-31T23:53:33.367Z,92828.54
2019-01-31T23:56:00.984Z,92827.80
2019-01-31T23:58:28.534Z,92827.50
